• Join FlightAware (Why Join?)
  • Login
  • US Flag 
12:49AM EDT


 

Airport Tracker/Info


-or-


 

Live Flight TrackerFlight Track Log ✈ N960DL ✈ 29-Apr-2013 ✈ KATL - KECP

Flight Track Log - Related Links

Times and Time Zones

All times are in EDT time to prevent confusion due to time zone crossing. See the N960DL flight status page for this flight to view local times or setup timezone preferences in your user account.

Time Position Orientation Groundspeed Altitude Reporting Facility
EDT Latitude Longitude Course Direction KTS MPH feet Rate Location/Type
09:48PM 33.6347 -84.4756 202° Southwest 431 496 2,600  Level Atlanta Center
09:49PM 33.6333 -84.5667 269° West 268 308 5,900 2,880 Climbing Atlanta TRACON
09:50PM 33.4002 -84.2906 202° Southwest  Level FlightAware Approximate
09:51PM 33.2957 -84.3407 202° Southwest  Level FlightAware Approximate
09:51PM 33.4800 -84.5767 183° South 315 362 11,300  Level Atlanta Center
09:52PM 33.1911 -84.3907 202° Southwest  Level FlightAware Approximate
09:52PM 33.3800 -84.5611 173° South 350 403 13,200  Level Atlanta Center
09:53PM 33.0866 -84.4405 202° Southwest  Level FlightAware Approximate
09:53PM 33.2650 -84.5481 175° South 385 443 15,900  Level Atlanta Center
09:54PM 33.1461 -84.5300 173° South 426 490 18,700 2,400 Climbing Atlanta Center
09:55PM 33.0378 -84.5172 174° South 441 507 20,700 1,620 Climbing Atlanta Center
09:56PM 32.9167 -84.5139 203° Southwest 451 519 22,000 420 Climbing Atlanta Center
09:57PM 32.9282 -84.5711 203° Southwest  Level Estimated
09:58PM 32.6719 -84.6089 198° South 438 504 22,000  Level Atlanta Center
09:59PM 32.5633 -84.6647 203° Southwest 438 504 22,000  Level Atlanta Center
10:00PM 32.4544 -84.7231 204° Southwest 438 504 22,000  Level Atlanta Center
10:03PM 32.1994 -84.8517 203° Southwest 422 486 22,000  Level Jacksonville Center
10:04PM 32.0919 -84.9058 203° Southwest 422 486 22,000  Level Jacksonville Center
10:05PM 31.9847 -84.9647 205° Southwest 422 486 22,000  Level Jacksonville Center
10:06PM 31.8772 -85.0186 203° Southwest 422 486 22,000  Level Jacksonville Center
10:07PM 31.7742 -85.0750 205° Southwest 422 486 22,000  Level Jacksonville Center
10:08PM 31.6644 -85.1308 203° Southwest 422 486 22,000 -60 Level Jacksonville Center
10:08PM 31.5867 -85.1706 204° Southwest 420 483 21,900 -1,140 Descending Jacksonville Center
10:09PM 31.4769 -85.2261 203° Southwest 410 472 20,000 -1,920 Descending Jacksonville Center
10:10PM 31.3778 -85.2772 204° Southwest 402 463 18,100 -1,680 Descending Jacksonville Center
10:12PM 31.2683 -85.3353 204° Southwest 403 464 16,300 -1,500 Descending Jacksonville Center
10:13PM 31.1692 -85.3836 203° Southwest 391 450 14,800 -1,620 Descending Jacksonville Center
10:14PM 31.0742 -85.4319 204° Southwest 380 437 13,100 -1,740 Descending Jacksonville Center
10:15PM 30.9794 -85.4806 204° Southwest 380 437 11,400 -1,380 Descending Jacksonville Center
10:16PM 30.8989 -85.5314 208° Southwest 357 411 10,400 -1,200 Descending Jacksonville Center
10:17PM 30.8311 -85.5781 211° Southwest 322 371 9,100 -1,440 Descending Jacksonville Center
10:18PM 30.7653 -85.6269 213° Southwest 297 342 7,600 -1,440 Descending Jacksonville Center
10:19PM 30.6997 -85.6733 211° Southwest 285 328 6,300 -1,260 Descending Jacksonville Center
10:20PM 30.6361 -85.7197 212° Southwest 280 322 5,100 -1,260 Descending Jacksonville Center
10:21PM 30.5767 -85.7589 210° Southwest 275 316 3,900 -1,260 Descending Jacksonville Center
10:22PM 30.5258 -85.7936 210° Southwest 249 287 2,700 -900 Descending Jacksonville Center
10:23PM 30.4747 -85.8306 212° Southwest 225 259 2,100 -600 Descending Jacksonville Center